sensor_id;sensor_type;location;lat;lon;timestamp;P1;durP1;ratioP1;P2;durP2;ratioP2
19107;SDS011;9686;48.832;9.126;2023-08-21T00:00:09;7.73;;;5.80;;
19107;SDS011;9686;48.832;9.126;2023-08-21T00:02:35;6.60;;;5.73;;
19107;SDS011;9686;48.832;9.126;2023-08-21T00:05:00;6.57;;;5.90;;
19107;SDS011;9686;48.832;9.126;2023-08-21T00:07:25;6.47;;;5.87;;
19107;SDS011;9686;48.832;9.126;2023-08-21T00:09:50;6.70;;;5.70;;
19107;SDS011;9686;48.832;9.126;2023-08-21T00:12:16;7.30;;;6.07;;
19107;SDS011;9686;48.832;9.126;2023-08-21T00:14:41;7.17;;;5.50;;
19107;SDS011;9686;48.832;9.126;2023-08-21T00:17:06;6.55;;;5.57;;
19107;SDS011;9686;48.832;9.126;2023-08-21T00:19:33;6.68;;;5.78;;
19107;SDS011;9686;48.832;9.126;2023-08-21T00:21:59;8.27;;;5.87;;
19107;SDS011;9686;48.832;9.126;2023-08-21T00:24:24;7.13;;;5.57;;
19107;SDS011;9686;48.832;9.126;2023-08-21T00:26:50;9.90;;;6.10;;
19107;SDS011;9686;48.832;9.126;2023-08-21T00:29:15;7.10;;;6.03;;
19107;SDS011;9686;48.832;9.126;2023-08-21T00:31:40;6.80;;;6.10;;
19107;SDS011;9686;48.832;9.126;2023-08-21T00:34:06;6.73;;;6.00;;
19107;SDS011;9686;48.832;9.126;2023-08-21T00:36:31;9.47;;;6.23;;
19107;SDS011;9686;48.832;9.126;2023-08-21T00:38:56;7.83;;;6.40;;
19107;SDS011;9686;48.832;9.126;2023-08-21T00:41:22;7.40;;;5.73;;
19107;SDS011;9686;48.832;9.126;2023-08-21T00:43:47;9.53;;;6.37;;
19107;SDS011;9686;48.832;9.126;2023-08-21T00:46:12;6.68;;;5.90;;
19107;SDS011;9686;48.832;9.126;2023-08-21T00:48:38;6.83;;;5.80;;
19107;SDS011;9686;48.832;9.126;2023-08-21T00:51:04;6.90;;;5.53;;
19107;SDS011;9686;48.832;9.126;2023-08-21T00:53:30;7.63;;;5.87;;
19107;SDS011;9686;48.832;9.126;2023-08-21T00:55:55;7.10;;;6.40;;
19107;SDS011;9686;48.832;9.126;2023-08-21T00:58:21;6.77;;;6.07;;
19107;SDS011;9686;48.832;9.126;2023-08-21T01:00:46;7.33;;;6.60;;
19107;SDS011;9686;48.832;9.126;2023-08-21T01:03:15;8.20;;;6.40;;
19107;SDS011;9686;48.832;9.126;2023-08-21T01:05:40;8.23;;;6.20;;
19107;SDS011;9686;48.832;9.126;2023-08-21T01:08:40;6.83;;;6.13;;
19107;SDS011;9686;48.832;9.126;2023-08-21T01:11:15;7.93;;;6.50;;
19107;SDS011;9686;48.832;9.126;2023-08-21T01:16:49;6.90;;;6.20;;
19107;SDS011;9686;48.832;9.126;2023-08-21T01:19:41;7.83;;;6.27;;
19107;SDS011;9686;48.832;9.126;2023-08-21T01:22:07;6.50;;;5.80;;
19107;SDS011;9686;48.832;9.126;2023-08-21T01:24:33;6.77;;;6.10;;
19107;SDS011;9686;48.832;9.126;2023-08-21T01:26:58;7.53;;;6.20;;
19107;SDS011;9686;48.832;9.126;2023-08-21T01:29:24;7.63;;;6.20;;
19107;SDS011;9686;48.832;9.126;2023-08-21T01:31:55;7.13;;;6.43;;
19107;SDS011;9686;48.832;9.126;2023-08-21T01:34:25;7.20;;;6.00;;
19107;SDS011;9686;48.832;9.126;2023-08-21T01:36:51;6.87;;;6.17;;
19107;SDS011;9686;48.832;9.126;2023-08-21T01:39:17;7.53;;;6.37;;
19107;SDS011;9686;48.832;9.126;2023-08-21T01:41:43;7.23;;;6.53;;
19107;SDS011;9686;48.832;9.126;2023-08-21T01:44:08;7.13;;;6.40;;
19107;SDS011;9686;48.832;9.126;2023-08-21T01:46:33;7.13;;;6.43;;
19107;SDS011;9686;48.832;9.126;2023-08-21T01:48:59;7.77;;;6.17;;
19107;SDS011;9686;48.832;9.126;2023-08-21T01:51:24;7.00;;;6.37;;
19107;SDS011;9686;48.832;9.126;2023-08-21T01:53:49;6.73;;;6.13;;
19107;SDS011;9686;48.832;9.126;2023-08-21T01:56:14;8.10;;;6.70;;
19107;SDS011;9686;48.832;9.126;2023-08-21T01:58:40;6.83;;;6.17;;
19107;SDS011;9686;48.832;9.126;2023-08-21T02:01:05;6.63;;;5.97;;
19107;SDS011;9686;48.832;9.126;2023-08-21T02:03:30;8.67;;;6.33;;
19107;SDS011;9686;48.832;9.126;2023-08-21T02:05:56;7.37;;;6.57;;
19107;SDS011;9686;48.832;9.126;2023-08-21T02:08:25;6.60;;;6.00;;
19107;SDS011;9686;48.832;9.126;2023-08-21T02:10:55;7.83;;;6.17;;
19107;SDS011;9686;48.832;9.126;2023-08-21T02:13:20;7.63;;;6.93;;
19107;SDS011;9686;48.832;9.126;2023-08-21T02:15:46;10.63;;;6.63;;
19107;SDS011;9686;48.832;9.126;2023-08-21T02:18:11;10.33;;;6.90;;
19107;SDS011;9686;48.832;9.126;2023-08-21T02:20:36;7.27;;;6.57;;
19107;SDS011;9686;48.832;9.126;2023-08-21T02:23:02;7.00;;;6.33;;
19107;SDS011;9686;48.832;9.126;2023-08-21T02:25:27;8.23;;;6.47;;
19107;SDS011;9686;48.832;9.126;2023-08-21T02:27:54;6.87;;;6.27;;
19107;SDS011;9686;48.832;9.126;2023-08-21T02:30:20;9.07;;;6.70;;
19107;SDS011;9686;48.832;9.126;2023-08-21T02:32:45;6.80;;;6.10;;
19107;SDS011;9686;48.832;9.126;2023-08-21T02:35:10;6.57;;;5.97;;
19107;SDS011;9686;48.832;9.126;2023-08-21T02:37:36;6.87;;;6.17;;
19107;SDS011;9686;48.832;9.126;2023-08-21T02:40:04;6.93;;;6.23;;
19107;SDS011;9686;48.832;9.126;2023-08-21T02:42:33;7.10;;;6.43;;
19107;SDS011;9686;48.832;9.126;2023-08-21T02:44:58;7.83;;;6.53;;
19107;SDS011;9686;48.832;9.126;2023-08-21T02:47:23;8.00;;;6.33;;
19107;SDS011;9686;48.832;9.126;2023-08-21T02:49:49;7.23;;;6.27;;
19107;SDS011;9686;48.832;9.126;2023-08-21T02:52:14;7.47;;;6.77;;
19107;SDS011;9686;48.832;9.126;2023-08-21T02:54:39;7.10;;;6.47;;
19107;SDS011;9686;48.832;9.126;2023-08-21T02:57:05;7.43;;;6.20;;
19107;SDS011;9686;48.832;9.126;2023-08-21T02:59:30;7.53;;;6.77;;
19107;SDS011;9686;48.832;9.126;2023-08-21T03:01:55;7.70;;;6.93;;
19107;SDS011;9686;48.832;9.126;2023-08-21T03:04:20;7.83;;;6.80;;
19107;SDS011;9686;48.832;9.126;2023-08-21T03:06:46;7.87;;;6.80;;
19107;SDS011;9686;48.832;9.126;2023-08-21T03:09:11;8.57;;;7.43;;
19107;SDS011;9686;48.832;9.126;2023-08-21T03:11:36;8.10;;;7.30;;
19107;SDS011;9686;48.832;9.126;2023-08-21T03:14:01;8.23;;;6.90;;
19107;SDS011;9686;48.832;9.126;2023-08-21T03:16:27;7.57;;;6.87;;
19107;SDS011;9686;48.832;9.126;2023-08-21T03:18:53;8.10;;;6.33;;
19107;SDS011;9686;48.832;9.126;2023-08-21T03:21:23;12.30;;;6.70;;
19107;SDS011;9686;48.832;9.126;2023-08-21T03:23:54;10.93;;;7.17;;
19107;SDS011;9686;48.832;9.126;2023-08-21T03:26:21;7.30;;;6.60;;
19107;SDS011;9686;48.832;9.126;2023-08-21T03:28:46;6.57;;;5.93;;
19107;SDS011;9686;48.832;9.126;2023-08-21T03:31:12;11.00;;;7.17;;
19107;SDS011;9686;48.832;9.126;2023-08-21T03:33:37;6.97;;;6.33;;
19107;SDS011;9686;48.832;9.126;2023-08-21T03:36:02;8.70;;;6.90;;
19107;SDS011;9686;48.832;9.126;2023-08-21T03:38:28;8.13;;;7.33;;
19107;SDS011;9686;48.832;9.126;2023-08-21T03:40:53;7.27;;;6.57;;
19107;SDS011;9686;48.832;9.126;2023-08-21T03:43:18;7.23;;;6.57;;
19107;SDS011;9686;48.832;9.126;2023-08-21T03:45:44;7.70;;;6.73;;
19107;SDS011;9686;48.832;9.126;2023-08-21T03:48:09;7.83;;;7.13;;
19107;SDS011;9686;48.832;9.126;2023-08-21T03:50:34;7.47;;;6.77;;
19107;SDS011;9686;48.832;9.126;2023-08-21T03:52:59;7.70;;;6.87;;
19107;SDS011;9686;48.832;9.126;2023-08-21T03:55:25;7.73;;;6.93;;
19107;SDS011;9686;48.832;9.126;2023-08-21T03:57:50;8.37;;;6.97;;
19107;SDS011;9686;48.832;9.126;2023-08-21T04:00:15;7.73;;;7.03;;
19107;SDS011;9686;48.832;9.126;2023-08-21T04:02:41;8.27;;;6.43;;
19107;SDS011;9686;48.832;9.126;2023-08-21T04:05:06;9.37;;;7.40;;
19107;SDS011;9686;48.832;9.126;2023-08-21T04:07:32;11.13;;;6.40;;
19107;SDS011;9686;48.832;9.126;2023-08-21T04:09:57;6.83;;;6.13;;
19107;SDS011;9686;48.832;9.126;2023-08-21T04:12:22;7.57;;;6.70;;
19107;SDS011;9686;48.832;9.126;2023-08-21T04:14:48;7.53;;;6.77;;
19107;SDS011;9686;48.832;9.126;2023-08-21T04:17:13;7.83;;;6.60;;
19107;SDS011;9686;48.832;9.126;2023-08-21T04:19:38;9.47;;;6.70;;
19107;SDS011;9686;48.832;9.126;2023-08-21T04:22:05;7.30;;;6.60;;
19107;SDS011;9686;48.832;9.126;2023-08-21T04:24:31;8.07;;;6.77;;
19107;SDS011;9686;48.832;9.126;2023-08-21T04:26:57;7.07;;;6.47;;
19107;SDS011;9686;48.832;9.126;2023-08-21T04:29:22;7.43;;;6.60;;
19107;SDS011;9686;48.832;9.126;2023-08-21T04:31:47;8.70;;;7.40;;
19107;SDS011;9686;48.832;9.126;2023-08-21T04:34:13;7.37;;;6.60;;
19107;SDS011;9686;48.832;9.126;2023-08-21T04:36:38;10.23;;;7.53;;
19107;SDS011;9686;48.832;9.126;2023-08-21T04:39:03;8.73;;;7.33;;
19107;SDS011;9686;48.832;9.126;2023-08-21T04:41:29;7.60;;;6.90;;
19107;SDS011;9686;48.832;9.126;2023-08-21T04:43:54;7.50;;;6.63;;
19107;SDS011;9686;48.832;9.126;2023-08-21T04:46:19;7.90;;;7.10;;
19107;SDS011;9686;48.832;9.126;2023-08-21T04:48:45;8.40;;;7.03;;
19107;SDS011;9686;48.832;9.126;2023-08-21T04:51:10;7.70;;;6.93;;
19107;SDS011;9686;48.832;9.126;2023-08-21T04:53:35;8.73;;;6.63;;
19107;SDS011;9686;48.832;9.126;2023-08-21T04:56:00;9.00;;;7.00;;
19107;SDS011;9686;48.832;9.126;2023-08-21T04:58:26;7.97;;;6.80;;
19107;SDS011;9686;48.832;9.126;2023-08-21T05:00:51;7.73;;;6.60;;
19107;SDS011;9686;48.832;9.126;2023-08-21T05:03:16;7.83;;;6.53;;
19107;SDS011;9686;48.832;9.126;2023-08-21T05:05:42;10.50;;;6.63;;
19107;SDS011;9686;48.832;9.126;2023-08-21T05:08:07;7.70;;;7.00;;
19107;SDS011;9686;48.832;9.126;2023-08-21T05:10:32;9.80;;;6.87;;
19107;SDS011;9686;48.832;9.126;2023-08-21T05:12:58;7.97;;;7.23;;
19107;SDS011;9686;48.832;9.126;2023-08-21T05:15:23;7.90;;;7.10;;
19107;SDS011;9686;48.832;9.126;2023-08-21T05:17:48;10.60;;;7.83;;
19107;SDS011;9686;48.832;9.126;2023-08-21T05:20:14;10.20;;;7.70;;
19107;SDS011;9686;48.832;9.126;2023-08-21T05:22:39;11.07;;;7.77;;
19107;SDS011;9686;48.832;9.126;2023-08-21T05:25:05;8.57;;;7.37;;
19107;SDS011;9686;48.832;9.126;2023-08-21T05:27:31;10.17;;;8.27;;
19107;SDS011;9686;48.832;9.126;2023-08-21T05:29:56;8.30;;;7.47;;
19107;SDS011;9686;48.832;9.126;2023-08-21T05:32:22;11.70;;;7.83;;
19107;SDS011;9686;48.832;9.126;2023-08-21T05:34:47;12.90;;;8.63;;
19107;SDS011;9686;48.832;9.126;2023-08-21T05:37:12;14.77;;;8.13;;
19107;SDS011;9686;48.832;9.126;2023-08-21T05:39:38;8.90;;;7.60;;
19107;SDS011;9686;48.832;9.126;2023-08-21T05:42:03;12.27;;;7.90;;
19107;SDS011;9686;48.832;9.126;2023-08-21T05:44:29;8.77;;;6.90;;
19107;SDS011;9686;48.832;9.126;2023-08-21T05:46:54;13.20;;;7.50;;
19107;SDS011;9686;48.832;9.126;2023-08-21T05:49:19;10.50;;;7.30;;
19107;SDS011;9686;48.832;9.126;2023-08-21T05:51:44;9.33;;;7.37;;
19107;SDS011;9686;48.832;9.126;2023-08-21T05:54:10;13.27;;;7.70;;
19107;SDS011;9686;48.832;9.126;2023-08-21T05:56:35;10.97;;;7.60;;
19107;SDS011;9686;48.832;9.126;2023-08-21T05:59:00;8.50;;;7.57;;
19107;SDS011;9686;48.832;9.126;2023-08-21T06:01:26;10.23;;;7.60;;
19107;SDS011;9686;48.832;9.126;2023-08-21T06:03:51;9.87;;;7.27;;
19107;SDS011;9686;48.832;9.126;2023-08-21T06:06:16;8.67;;;7.77;;
19107;SDS011;9686;48.832;9.126;2023-08-21T06:08:42;8.47;;;7.67;;
19107;SDS011;9686;48.832;9.126;2023-08-21T06:11:07;8.53;;;7.67;;
19107;SDS011;9686;48.832;9.126;2023-08-21T06:13:32;9.23;;;7.53;;
19107;SDS011;9686;48.832;9.126;2023-08-21T06:15:57;9.47;;;7.03;;
19107;SDS011;9686;48.832;9.126;2023-08-21T06:18:23;11.63;;;7.80;;
19107;SDS011;9686;48.832;9.126;2023-08-21T06:20:48;7.67;;;6.97;;
19107;SDS011;9686;48.832;9.126;2023-08-21T06:23:18;9.30;;;7.50;;
19107;SDS011;9686;48.832;9.126;2023-08-21T06:25:44;11.13;;;7.23;;
19107;SDS011;9686;48.832;9.126;2023-08-21T06:28:09;11.80;;;7.70;;
19107;SDS011;9686;48.832;9.126;2023-08-21T06:30:35;10.00;;;6.87;;
19107;SDS011;9686;48.832;9.126;2023-08-21T06:33:00;11.90;;;7.33;;
19107;SDS011;9686;48.832;9.126;2023-08-21T06:35:25;7.30;;;6.47;;
19107;SDS011;9686;48.832;9.126;2023-08-21T06:37:50;9.40;;;6.50;;
19107;SDS011;9686;48.832;9.126;2023-08-21T06:40:16;11.03;;;7.03;;
19107;SDS011;9686;48.832;9.126;2023-08-21T06:42:41;9.47;;;6.40;;
19107;SDS011;9686;48.832;9.126;2023-08-21T06:45:06;9.43;;;6.87;;
19107;SDS011;9686;48.832;9.126;2023-08-21T06:47:32;8.30;;;6.50;;
19107;SDS011;9686;48.832;9.126;2023-08-21T06:49:58;8.97;;;6.60;;
19107;SDS011;9686;48.832;9.126;2023-08-21T06:52:25;7.03;;;6.43;;
19107;SDS011;9686;48.832;9.126;2023-08-21T06:54:51;15.32;;;6.70;;
19107;SDS011;9686;48.832;9.126;2023-08-21T06:57:16;7.27;;;6.57;;
19107;SDS011;9686;48.832;9.126;2023-08-21T06:59:41;7.63;;;6.10;;
19107;SDS011;9686;48.832;9.126;2023-08-21T07:02:07;9.57;;;5.20;;
19107;SDS011;9686;48.832;9.126;2023-08-21T07:04:32;6.50;;;5.47;;
19107;SDS011;9686;48.832;9.126;2023-08-21T07:06:58;9.63;;;5.90;;
19107;SDS011;9686;48.832;9.126;2023-08-21T07:09:24;6.00;;;5.40;;
19107;SDS011;9686;48.832;9.126;2023-08-21T07:11:49;9.23;;;5.97;;
19107;SDS011;9686;48.832;9.126;2023-08-21T07:14:14;9.13;;;6.10;;
19107;SDS011;9686;48.832;9.126;2023-08-21T07:16:40;6.83;;;6.03;;
19107;SDS011;9686;48.832;9.126;2023-08-21T07:19:05;10.05;;;5.65;;
19107;SDS011;9686;48.832;9.126;2023-08-21T07:21:31;6.67;;;5.63;;
19107;SDS011;9686;48.832;9.126;2023-08-21T07:23:56;7.10;;;5.40;;
19107;SDS011;9686;48.832;9.126;2023-08-21T07:26:21;6.75;;;5.70;;
19107;SDS011;9686;48.832;9.126;2023-08-21T07:28:47;6.13;;;5.23;;
19107;SDS011;9686;48.832;9.126;2023-08-21T07:31:12;6.90;;;5.78;;
19107;SDS011;9686;48.832;9.126;2023-08-21T07:33:37;6.40;;;5.80;;
19107;SDS011;9686;48.832;9.126;2023-08-21T07:36:03;8.13;;;5.75;;
19107;SDS011;9686;48.832;9.126;2023-08-21T07:38:30;9.60;;;6.13;;
19107;SDS011;9686;48.832;9.126;2023-08-21T07:41:02;8.38;;;5.47;;
19107;SDS011;9686;48.832;9.126;2023-08-21T07:43:29;6.22;;;5.63;;
19107;SDS011;9686;48.832;9.126;2023-08-21T07:45:55;7.50;;;5.57;;
19107;SDS011;9686;48.832;9.126;2023-08-21T07:48:20;12.07;;;5.40;;
19107;SDS011;9686;48.832;9.126;2023-08-21T07:50:52;8.05;;;5.40;;
19107;SDS011;9686;48.832;9.126;2023-08-21T07:53:18;6.00;;;5.22;;
19107;SDS011;9686;48.832;9.126;2023-08-21T07:55:44;9.15;;;6.07;;
19107;SDS011;9686;48.832;9.126;2023-08-21T07:58:10;8.10;;;5.72;;
19107;SDS011;9686;48.832;9.126;2023-08-21T08:00:36;7.13;;;5.18;;
19107;SDS011;9686;48.832;9.126;2023-08-21T08:03:01;7.32;;;5.22;;
19107;SDS011;9686;48.832;9.126;2023-08-21T08:05:26;9.77;;;5.75;;
19107;SDS011;9686;48.832;9.126;2023-08-21T08:07:52;6.20;;;5.38;;
19107;SDS011;9686;48.832;9.126;2023-08-21T08:10:17;6.07;;;5.00;;
19107;SDS011;9686;48.832;9.126;2023-08-21T08:12:42;6.22;;;5.05;;
19107;SDS011;9686;48.832;9.126;2023-08-21T08:15:09;8.65;;;6.15;;
19107;SDS011;9686;48.832;9.126;2023-08-21T08:17:35;7.40;;;5.97;;
19107;SDS011;9686;48.832;9.126;2023-08-21T08:20:00;8.50;;;5.53;;
19107;SDS011;9686;48.832;9.126;2023-08-21T08:22:26;8.57;;;5.35;;
19107;SDS011;9686;48.832;9.126;2023-08-21T08:24:51;10.93;;;6.18;;
19107;SDS011;9686;48.832;9.126;2023-08-21T08:27:16;7.13;;;5.82;;
19107;SDS011;9686;48.832;9.126;2023-08-21T08:29:42;6.10;;;5.60;;
19107;SDS011;9686;48.832;9.126;2023-08-21T08:32:07;8.23;;;5.55;;
19107;SDS011;9686;48.832;9.126;2023-08-21T08:34:32;6.82;;;5.43;;
19107;SDS011;9686;48.832;9.126;2023-08-21T08:36:58;7.45;;;5.43;;
19107;SDS011;9686;48.832;9.126;2023-08-21T08:39:23;6.57;;;5.95;;
19107;SDS011;9686;48.832;9.126;2023-08-21T08:41:58;6.53;;;5.93;;
19107;SDS011;9686;48.832;9.126;2023-08-21T08:44:26;8.05;;;5.70;;
19107;SDS011;9686;48.832;9.126;2023-08-21T08:46:52;8.35;;;5.38;;
19107;SDS011;9686;48.832;9.126;2023-08-21T08:49:18;10.85;;;5.85;;
19107;SDS011;9686;48.832;9.126;2023-08-21T08:51:44;8.18;;;6.75;;
19107;SDS011;9686;48.832;9.126;2023-08-21T08:54:11;9.60;;;6.40;;
19107;SDS011;9686;48.832;9.126;2023-08-21T08:56:37;7.05;;;5.78;;
19107;SDS011;9686;48.832;9.126;2023-08-21T08:59:03;8.15;;;5.10;;
19107;SDS011;9686;48.832;9.126;2023-08-21T09:01:28;8.00;;;5.85;;
19107;SDS011;9686;48.832;9.126;2023-08-21T09:03:54;6.47;;;5.82;;
19107;SDS011;9686;48.832;9.126;2023-08-21T09:06:19;7.75;;;5.72;;
19107;SDS011;9686;48.832;9.126;2023-08-21T09:08:54;10.38;;;6.38;;
19107;SDS011;9686;48.832;9.126;2023-08-21T09:11:20;10.65;;;6.05;;
19107;SDS011;9686;48.832;9.126;2023-08-21T09:13:46;7.22;;;5.80;;
19107;SDS011;9686;48.832;9.126;2023-08-21T09:16:14;7.63;;;6.22;;
19107;SDS011;9686;48.832;9.126;2023-08-21T09:18:51;6.78;;;5.25;;
19107;SDS011;9686;48.832;9.126;2023-08-21T09:21:21;6.45;;;5.78;;
19107;SDS011;9686;48.832;9.126;2023-08-21T09:23:48;8.52;;;5.88;;
19107;SDS011;9686;48.832;9.126;2023-08-21T09:26:23;7.60;;;5.72;;
19107;SDS011;9686;48.832;9.126;2023-08-21T09:28:49;8.90;;;5.95;;
19107;SDS011;9686;48.832;9.126;2023-08-21T09:31:16;6.43;;;5.82;;
19107;SDS011;9686;48.832;9.126;2023-08-21T09:33:54;8.73;;;5.60;;
19107;SDS011;9686;48.832;9.126;2023-08-21T09:36:21;7.63;;;5.43;;
19107;SDS011;9686;48.832;9.126;2023-08-21T09:38:47;6.18;;;5.57;;
19107;SDS011;9686;48.832;9.126;2023-08-21T09:41:13;6.05;;;5.50;;
19107;SDS011;9686;48.832;9.126;2023-08-21T09:43:41;6.07;;;5.40;;
19107;SDS011;9686;48.832;9.126;2023-08-21T09:46:08;5.65;;;5.05;;
19107;SDS011;9686;48.832;9.126;2023-08-21T09:48:33;5.43;;;4.60;;
19107;SDS011;9686;48.832;9.126;2023-08-21T09:51:00;8.07;;;5.07;;
19107;SDS011;9686;48.832;9.126;2023-08-21T09:53:29;6.22;;;4.60;;
19107;SDS011;9686;48.832;9.126;2023-08-21T09:55:54;7.63;;;5.38;;
19107;SDS011;9686;48.832;9.126;2023-08-21T09:58:20;7.18;;;5.35;;
19107;SDS011;9686;48.832;9.126;2023-08-21T10:00:46;6.10;;;4.70;;
19107;SDS011;9686;48.832;9.126;2023-08-21T10:03:14;7.05;;;4.80;;
19107;SDS011;9686;48.832;9.126;2023-08-21T10:05:43;5.57;;;5.00;;
19107;SDS011;9686;48.832;9.126;2023-08-21T10:08:08;6.10;;;4.60;;
19107;SDS011;9686;48.832;9.126;2023-08-21T10:10:34;7.22;;;4.57;;
19107;SDS011;9686;48.832;9.126;2023-08-21T10:13:02;5.90;;;4.93;;
19107;SDS011;9686;48.832;9.126;2023-08-21T10:15:28;8.73;;;4.80;;
19107;SDS011;9686;48.832;9.126;2023-08-21T10:17:54;7.07;;;4.30;;
19107;SDS011;9686;48.832;9.126;2023-08-21T10:20:21;6.00;;;5.05;;
19107;SDS011;9686;48.832;9.126;2023-08-21T10:22:53;5.55;;;4.97;;
19107;SDS011;9686;48.832;9.126;2023-08-21T10:25:21;9.73;;;4.68;;
19107;SDS011;9686;48.832;9.126;2023-08-21T10:27:53;6.95;;;4.85;;
19107;SDS011;9686;48.832;9.126;2023-08-21T10:30:24;6.35;;;4.63;;
19107;SDS011;9686;48.832;9.126;2023-08-21T10:32:52;6.72;;;4.70;;
19107;SDS011;9686;48.832;9.126;2023-08-21T10:35:22;5.20;;;4.65;;
19107;SDS011;9686;48.832;9.126;2023-08-21T10:38:17;4.65;;;4.25;;
19107;SDS011;9686;48.832;9.126;2023-08-21T10:43:38;6.25;;;4.18;;
19107;SDS011;9686;48.832;9.126;2023-08-21T10:46:10;8.32;;;4.20;;
19107;SDS011;9686;48.832;9.126;2023-08-21T10:48:37;5.25;;;4.45;;
19107;SDS011;9686;48.832;9.126;2023-08-21T10:51:05;8.65;;;4.90;;
19107;SDS011;9686;48.832;9.126;2023-08-21T10:53:32;6.28;;;5.40;;
19107;SDS011;9686;48.832;9.126;2023-08-21T10:56:02;8.18;;;4.97;;
19107;SDS011;9686;48.832;9.126;2023-08-21T10:58:28;4.90;;;4.03;;
19107;SDS011;9686;48.832;9.126;2023-08-21T11:00:59;5.93;;;4.50;;
19107;SDS011;9686;48.832;9.126;2023-08-21T11:03:24;7.30;;;4.40;;
19107;SDS011;9686;48.832;9.126;2023-08-21T11:06:00;7.80;;;4.28;;
19107;SDS011;9686;48.832;9.126;2023-08-21T11:08:29;9.32;;;5.03;;
19107;SDS011;9686;48.832;9.126;2023-08-21T11:10:55;6.85;;;4.60;;
19107;SDS011;9686;48.832;9.126;2023-08-21T11:13:23;7.75;;;4.55;;
19107;SDS011;9686;48.832;9.126;2023-08-21T11:15:48;5.07;;;4.28;;
19107;SDS011;9686;48.832;9.126;2023-08-21T11:18:22;9.70;;;5.18;;
19107;SDS011;9686;48.832;9.126;2023-08-21T11:20:51;6.20;;;4.68;;
19107;SDS011;9686;48.832;9.126;2023-08-21T11:23:31;7.20;;;5.10;;
19107;SDS011;9686;48.832;9.126;2023-08-21T11:25:57;5.82;;;4.72;;
19107;SDS011;9686;48.832;9.126;2023-08-21T11:28:22;5.38;;;4.38;;
19107;SDS011;9686;48.832;9.126;2023-08-21T11:30:48;7.53;;;5.40;;
19107;SDS011;9686;48.832;9.126;2023-08-21T11:33:13;6.57;;;4.93;;
19107;SDS011;9686;48.832;9.126;2023-08-21T11:35:39;5.68;;;5.20;;
19107;SDS011;9686;48.832;9.126;2023-08-21T11:38:05;5.35;;;4.88;;
19107;SDS011;9686;48.832;9.126;2023-08-21T11:40:34;7.55;;;5.15;;
19107;SDS011;9686;48.832;9.126;2023-08-21T11:43:00;7.28;;;4.78;;
19107;SDS011;9686;48.832;9.126;2023-08-21T11:45:26;5.43;;;4.38;;
19107;SDS011;9686;48.832;9.126;2023-08-21T11:47:52;8.10;;;5.47;;
19107;SDS011;9686;48.832;9.126;2023-08-21T11:50:20;7.43;;;5.10;;
19107;SDS011;9686;48.832;9.126;2023-08-21T11:52:46;8.60;;;4.85;;
19107;SDS011;9686;48.832;9.126;2023-08-21T11:55:11;6.18;;;5.18;;
19107;SDS011;9686;48.832;9.126;2023-08-21T11:57:49;5.00;;;4.50;;
19107;SDS011;9686;48.832;9.126;2023-08-21T12:00:15;5.38;;;4.90;;
19107;SDS011;9686;48.832;9.126;2023-08-21T12:02:48;6.00;;;4.40;;
19107;SDS011;9686;48.832;9.126;2023-08-21T12:05:20;5.90;;;4.65;;
19107;SDS011;9686;48.832;9.126;2023-08-21T12:07:45;5.43;;;4.82;;
19107;SDS011;9686;48.832;9.126;2023-08-21T12:10:11;5.72;;;4.90;;
19107;SDS011;9686;48.832;9.126;2023-08-21T12:12:36;6.55;;;4.57;;
19107;SDS011;9686;48.832;9.126;2023-08-21T12:15:01;9.13;;;4.80;;
19107;SDS011;9686;48.832;9.126;2023-08-21T12:17:26;7.40;;;4.53;;
19107;SDS011;9686;48.832;9.126;2023-08-21T12:19:52;7.75;;;5.32;;
19107;SDS011;9686;48.832;9.126;2023-08-21T12:22:17;4.50;;;4.07;;
19107;SDS011;9686;48.832;9.126;2023-08-21T12:24:42;8.77;;;4.90;;
19107;SDS011;9686;48.832;9.126;2023-08-21T12:27:08;7.90;;;4.55;;
19107;SDS011;9686;48.832;9.126;2023-08-21T12:29:33;7.97;;;4.65;;
19107;SDS011;9686;48.832;9.126;2023-08-21T12:31:59;7.82;;;5.00;;
19107;SDS011;9686;48.832;9.126;2023-08-21T12:34:24;5.25;;;4.63;;
19107;SDS011;9686;48.832;9.126;2023-08-21T12:36:50;6.47;;;4.78;;
19107;SDS011;9686;48.832;9.126;2023-08-21T12:39:16;6.05;;;4.03;;
19107;SDS011;9686;48.832;9.126;2023-08-21T12:41:42;7.55;;;4.63;;
19107;SDS011;9686;48.832;9.126;2023-08-21T12:44:08;11.68;;;5.05;;
19107;SDS011;9686;48.832;9.126;2023-08-21T12:46:34;4.82;;;4.35;;
19107;SDS011;9686;48.832;9.126;2023-08-21T12:49:00;7.47;;;4.82;;
19107;SDS011;9686;48.832;9.126;2023-08-21T12:51:26;7.38;;;4.78;;
19107;SDS011;9686;48.832;9.126;2023-08-21T12:53:52;4.75;;;3.85;;
19107;SDS011;9686;48.832;9.126;2023-08-21T12:56:18;7.38;;;4.47;;
19107;SDS011;9686;48.832;9.126;2023-08-21T12:58:43;8.68;;;4.40;;
19107;SDS011;9686;48.832;9.126;2023-08-21T13:01:08;4.95;;;4.50;;
19107;SDS011;9686;48.832;9.126;2023-08-21T13:03:34;4.55;;;4.07;;
19107;SDS011;9686;48.832;9.126;2023-08-21T13:06:00;9.90;;;4.35;;
19107;SDS011;9686;48.832;9.126;2023-08-21T13:08:25;6.55;;;4.70;;
19107;SDS011;9686;48.832;9.126;2023-08-21T13:10:52;6.43;;;4.47;;
19107;SDS011;9686;48.832;9.126;2023-08-21T13:13:17;6.15;;;5.00;;
19107;SDS011;9686;48.832;9.126;2023-08-21T13:15:42;7.45;;;4.80;;
19107;SDS011;9686;48.832;9.126;2023-08-21T13:18:11;8.00;;;4.75;;
19107;SDS011;9686;48.832;9.126;2023-08-21T13:20:38;6.90;;;4.55;;
19107;SDS011;9686;48.832;9.126;2023-08-21T13:23:03;5.07;;;4.20;;
19107;SDS011;9686;48.832;9.126;2023-08-21T13:25:28;5.97;;;4.40;;
19107;SDS011;9686;48.832;9.126;2023-08-21T13:27:55;4.93;;;4.50;;
19107;SDS011;9686;48.832;9.126;2023-08-21T13:30:21;6.68;;;4.25;;
19107;SDS011;9686;48.832;9.126;2023-08-21T13:32:47;7.57;;;4.75;;
19107;SDS011;9686;48.832;9.126;2023-08-21T13:35:13;5.15;;;4.65;;
19107;SDS011;9686;48.832;9.126;2023-08-21T13:37:39;6.00;;;4.32;;
19107;SDS011;9686;48.832;9.126;2023-08-21T13:40:05;5.32;;;4.53;;
19107;SDS011;9686;48.832;9.126;2023-08-21T13:42:38;5.07;;;4.50;;
19107;SDS011;9686;48.832;9.126;2023-08-21T13:45:11;8.52;;;5.10;;
19107;SDS011;9686;48.832;9.126;2023-08-21T13:47:38;6.20;;;4.70;;
19107;SDS011;9686;48.832;9.126;2023-08-21T13:50:04;6.30;;;4.68;;
19107;SDS011;9686;48.832;9.126;2023-08-21T13:52:31;6.57;;;4.90;;
19107;SDS011;9686;48.832;9.126;2023-08-21T13:54:57;5.57;;;4.40;;
19107;SDS011;9686;48.832;9.126;2023-08-21T13:57:23;7.75;;;4.45;;
19107;SDS011;9686;48.832;9.126;2023-08-21T13:59:48;7.57;;;4.38;;
19107;SDS011;9686;48.832;9.126;2023-08-21T14:02:13;4.70;;;4.28;;
19107;SDS011;9686;48.832;9.126;2023-08-21T14:04:39;4.90;;;4.30;;
19107;SDS011;9686;48.832;9.126;2023-08-21T14:07:04;6.53;;;4.30;;
19107;SDS011;9686;48.832;9.126;2023-08-21T14:09:29;7.85;;;4.43;;
19107;SDS011;9686;48.832;9.126;2023-08-21T14:11:55;7.65;;;4.22;;
19107;SDS011;9686;48.832;9.126;2023-08-21T14:14:20;4.93;;;4.13;;
19107;SDS011;9686;48.832;9.126;2023-08-21T14:16:45;7.25;;;4.38;;
19107;SDS011;9686;48.832;9.126;2023-08-21T14:19:10;4.63;;;4.13;;
19107;SDS011;9686;48.832;9.126;2023-08-21T14:21:36;7.75;;;4.68;;
19107;SDS011;9686;48.832;9.126;2023-08-21T14:24:01;5.68;;;4.50;;
19107;SDS011;9686;48.832;9.126;2023-08-21T14:26:26;5.55;;;4.63;;
19107;SDS011;9686;48.832;9.126;2023-08-21T14:28:51;7.47;;;4.40;;
19107;SDS011;9686;48.832;9.126;2023-08-21T14:31:17;7.10;;;4.70;;
19107;SDS011;9686;48.832;9.126;2023-08-21T14:33:42;8.13;;;5.25;;
19107;SDS011;9686;48.832;9.126;2023-08-21T14:36:08;9.68;;;4.53;;
19107;SDS011;9686;48.832;9.126;2023-08-21T14:38:33;7.85;;;4.22;;
19107;SDS011;9686;48.832;9.126;2023-08-21T14:40:59;6.45;;;4.70;;
19107;SDS011;9686;48.832;9.126;2023-08-21T14:43:24;6.43;;;4.60;;
19107;SDS011;9686;48.832;9.126;2023-08-21T14:45:50;5.32;;;4.82;;
19107;SDS011;9686;48.832;9.126;2023-08-21T14:48:16;5.43;;;4.60;;
19107;SDS011;9686;48.832;9.126;2023-08-21T14:50:42;6.10;;;4.32;;
19107;SDS011;9686;48.832;9.126;2023-08-21T14:53:07;4.93;;;4.38;;
19107;SDS011;9686;48.832;9.126;2023-08-21T14:55:33;6.28;;;4.25;;
19107;SDS011;9686;48.832;9.126;2023-08-21T14:57:58;6.40;;;4.22;;
19107;SDS011;9686;48.832;9.126;2023-08-21T15:00:23;6.28;;;4.70;;